createdAt,value
2018-03-07T00:00:50.921Z,280.40
2018-03-07T00:01:50.913Z,184.50
2018-03-07T00:02:50.902Z,144.00
2018-03-07T00:03:50.894Z,245.10
2018-03-07T00:04:50.888Z,191.60
2018-03-07T00:05:50.877Z,179.30
2018-03-07T00:06:50.867Z,199.20
2018-03-07T00:07:50.857Z,208.70
2018-03-07T00:08:50.850Z,197.00
2018-03-07T00:09:50.846Z,186.50
2018-03-07T00:10:50.828Z,189.20
2018-03-07T00:11:50.827Z,224.90
2018-03-07T00:12:50.814Z,212.20
2018-03-07T00:13:50.809Z,250.80
2018-03-07T00:14:50.818Z,220.20
2018-03-07T00:15:50.786Z,218.90
2018-03-07T00:16:50.778Z,190.90
2018-03-07T00:17:50.769Z,204.70
2018-03-07T00:18:50.762Z,210.00
2018-03-07T00:19:50.754Z,199.10
2018-03-07T00:20:50.742Z,254.20
2018-03-07T00:21:50.740Z,192.80
2018-03-07T00:22:50.726Z,204.60
2018-03-07T00:23:50.716Z,214.10
2018-03-07T00:24:50.706Z,196.40
2018-03-07T00:25:50.698Z,231.30
2018-03-07T00:26:50.690Z,202.00
2018-03-07T00:27:50.684Z,172.30
2018-03-07T00:28:50.670Z,180.40
2018-03-07T00:29:50.662Z,160.50
2018-03-07T00:30:50.654Z,200.60
2018-03-07T00:31:50.646Z,204.20
2018-03-07T00:32:50.634Z,190.40
2018-03-07T00:33:50.626Z,196.90
2018-03-07T00:34:50.617Z,170.30
2018-03-07T00:35:50.608Z,194.80
2018-03-07T00:36:50.603Z,177.60
2018-03-07T00:37:50.591Z,186.80
2018-03-07T00:38:50.582Z,201.70
2018-03-07T00:39:50.573Z,167.90
2018-03-07T00:40:50.566Z,174.20
2018-03-07T00:41:50.556Z,198.80
2018-03-07T00:42:50.546Z,198.00
2018-03-07T00:43:50.534Z,174.90
2018-03-07T00:44:50.527Z,194.40
2018-03-07T00:45:50.521Z,192.90
2018-03-07T00:46:50.508Z,195.60
2018-03-07T00:47:50.501Z,166.80
2018-03-07T00:48:50.492Z,263.40
2018-03-07T00:49:50.479Z,206.10
2018-03-07T00:50:50.473Z,198.10
2018-03-07T00:51:50.464Z,204.60
2018-03-07T00:52:50.463Z,221.90
2018-03-07T00:53:50.449Z,200.90
2018-03-07T00:54:50.436Z,213.90
2018-03-07T00:55:50.429Z,195.90
2018-03-07T00:56:50.419Z,187.50
2018-03-07T00:57:50.409Z,152.20
2018-03-07T00:58:50.403Z,139.50
2018-03-07T00:59:50.393Z,244.20
2018-03-07T01:00:50.381Z,178.30
2018-03-07T01:01:50.373Z,194.40
2018-03-07T01:02:50.359Z,184.10
2018-03-07T01:03:50.354Z,217.60
2018-03-07T01:04:50.342Z,160.40
2018-03-07T01:05:50.330Z,138.70
2018-03-07T01:06:50.329Z,154.40
2018-03-07T01:07:50.318Z,234.00
2018-03-07T01:08:50.311Z,205.50
2018-03-07T01:09:50.298Z,166.80
2018-03-07T01:10:50.291Z,137.50
2018-03-07T01:11:50.281Z,220.40
2018-03-07T01:12:50.272Z,252.10
2018-03-07T01:13:50.264Z,294.60
2018-03-07T01:14:50.255Z,186.70
2018-03-07T01:15:50.243Z,252.80
2018-03-07T01:16:50.237Z,209.90
2018-03-07T01:17:50.229Z,200.10
2018-03-07T01:18:50.228Z,154.20
2018-03-07T01:19:50.212Z,228.30
2018-03-07T01:20:50.202Z,183.10
2018-03-07T01:21:50.194Z,145.70
2018-03-07T01:22:50.184Z,138.10
2018-03-07T01:23:50.177Z,201.80
2018-03-07T01:24:50.166Z,183.40
2018-03-07T01:25:50.164Z,208.20
2018-03-07T01:26:50.150Z,191.30
2018-03-07T01:27:50.140Z,189.60
2018-03-07T01:28:50.131Z,147.80
2018-03-07T01:29:50.125Z,209.70
2018-03-07T01:30:50.115Z,225.80
2018-03-07T01:31:50.105Z,247.80
2018-03-07T01:32:50.096Z,209.90
2018-03-07T01:33:50.089Z,154.00
2018-03-07T01:34:50.083Z,192.00
2018-03-07T01:35:50.067Z,142.70
2018-03-07T01:36:50.062Z,166.20
2018-03-07T01:37:50.053Z,184.60
2018-03-07T01:38:50.044Z,135.40
2018-03-07T01:39:50.028Z,162.80
2018-03-07T01:40:50.028Z,187.90
2018-03-07T01:41:50.017Z,121.80
2018-03-07T01:42:50.007Z,212.80
2018-03-07T01:43:49.999Z,232.50
2018-03-07T01:44:49.993Z,223.00
2018-03-07T01:45:49.982Z,195.60
2018-03-07T01:46:49.974Z,132.40
2018-03-07T01:47:49.964Z,174.80
2018-03-07T01:48:49.956Z,145.00
2018-03-07T01:49:49.948Z,141.90
2018-03-07T01:50:49.940Z,210.80
2018-03-07T01:51:49.930Z,358.80
2018-03-07T01:52:49.922Z,224.70
2018-03-07T01:53:49.912Z,180.50
2018-03-07T01:54:49.910Z,123.20
2018-03-07T01:55:49.892Z,136.20
2018-03-07T01:56:49.889Z,117.30
2018-03-07T01:57:49.879Z,143.00
2018-03-07T01:58:49.869Z,107.40
2018-03-07T01:59:49.865Z,145.30
2018-03-07T02:00:49.853Z,107.20
2018-03-07T02:01:49.843Z,115.30
2018-03-07T02:02:49.833Z,135.40
2018-03-07T02:03:49.827Z,108.70
2018-03-07T02:04:49.817Z,120.70
2018-03-07T02:05:49.808Z,109.50
2018-03-07T02:06:49.816Z,110.60
2018-03-07T02:07:49.791Z,113.20
2018-03-07T02:08:49.777Z,130.50
2018-03-07T02:09:49.773Z,124.80
2018-03-07T02:10:49.765Z,119.70
2018-03-07T02:11:49.757Z,100.70
2018-03-07T02:12:49.748Z,120.70
2018-03-07T02:13:49.739Z,147.70
2018-03-07T02:14:49.729Z,106.10
2018-03-07T02:15:49.719Z,101.70
2018-03-07T02:16:49.712Z,117.30
2018-03-07T02:17:49.704Z,110.10
2018-03-07T02:18:49.695Z,99.50
2018-03-07T02:19:49.687Z,115.30
2018-03-07T02:20:49.677Z,113.80
2018-03-07T02:21:49.669Z,129.60
2018-03-07T02:22:49.661Z,103.80
2018-03-07T02:23:49.656Z,109.60
2018-03-07T02:24:49.646Z,106.50
2018-03-07T02:25:49.631Z,136.20
2018-03-07T02:26:49.628Z,105.30
2018-03-07T02:27:49.616Z,133.10
2018-03-07T02:28:49.605Z,111.70
2018-03-07T02:29:49.599Z,130.70
2018-03-07T02:30:49.593Z,113.80
2018-03-07T02:31:49.583Z,99.20
2018-03-07T02:32:49.577Z,101.80
2018-03-07T02:33:49.568Z,107.20
2018-03-07T02:34:49.557Z,107.00
2018-03-07T02:35:49.547Z,108.50
2018-03-07T02:36:49.549Z,127.00
2018-03-07T02:37:49.530Z,112.20
2018-03-07T02:38:49.523Z,111.70
2018-03-07T02:39:49.513Z,112.30
2018-03-07T02:40:49.505Z,101.10
2018-03-07T02:41:49.496Z,96.30
2018-03-07T02:42:49.488Z,105.80
2018-03-07T02:43:49.478Z,110.90
2018-03-07T02:44:49.471Z,115.10
2018-03-07T02:45:49.459Z,114.40
2018-03-07T02:46:49.454Z,105.30
2018-03-07T02:47:49.446Z,114.50
2018-03-07T02:48:49.431Z,121.80
2018-03-07T02:49:49.426Z,140.30
2018-03-07T02:50:49.418Z,113.20
2018-03-07T02:51:49.414Z,125.90
2018-03-07T02:52:49.403Z,120.30
2018-03-07T02:53:49.405Z,113.00
2018-03-07T02:54:49.387Z,122.30
2018-03-07T02:55:49.373Z,169.50
2018-03-07T02:56:49.366Z,124.30
2018-03-07T02:57:49.355Z,115.70
2018-03-07T02:58:49.357Z,106.70
2018-03-07T02:59:49.349Z,136.90
2018-03-07T03:00:49.332Z,119.90
2018-03-07T03:01:49.322Z,116.40
2018-03-07T03:02:49.315Z,123.70
2018-03-07T03:03:49.334Z,132.50
2018-03-07T03:04:49.296Z,183.70
2018-03-07T03:05:49.286Z,127.10
2018-03-07T03:06:49.282Z,127.00
2018-03-07T03:07:49.270Z,133.70
2018-03-07T03:08:49.258Z,121.30
2018-03-07T03:09:49.256Z,120.00
2018-03-07T03:10:49.246Z,112.90
2018-03-07T03:11:49.235Z,111.20
2018-03-07T03:12:49.230Z,152.20
2018-03-07T03:13:49.219Z,127.60
2018-03-07T03:14:49.211Z,141.20
2018-03-07T03:15:49.198Z,106.60
2018-03-07T03:16:49.192Z,117.10
2018-03-07T03:17:49.183Z,107.70
2018-03-07T03:18:49.176Z,116.70
2018-03-07T03:19:49.161Z,105.20
2018-03-07T03:20:49.156Z,112.50
2018-03-07T03:21:49.145Z,123.60
2018-03-07T03:22:49.139Z,112.70
2018-03-07T03:23:49.130Z,135.70
2018-03-07T03:24:49.120Z,104.90
2018-03-07T03:25:49.112Z,113.30
2018-03-07T03:26:49.104Z,100.70
2018-03-07T03:27:49.093Z,107.00
2018-03-07T03:28:49.084Z,113.00
2018-03-07T03:29:49.076Z,112.70
2018-03-07T03:30:49.073Z,113.30
2018-03-07T03:31:49.060Z,111.70
2018-03-07T03:32:49.055Z,106.60
2018-03-07T03:33:49.044Z,104.40
2018-03-07T03:34:49.035Z,114.80
2018-03-07T03:35:49.025Z,109.80
2018-03-07T03:36:49.012Z,130.80
2018-03-07T03:37:49.007Z,127.20
2018-03-07T03:38:48.998Z,129.00
2018-03-07T03:39:48.991Z,117.60
2018-03-07T03:40:48.977Z,103.40
2018-03-07T03:41:48.966Z,119.10
2018-03-07T03:42:48.971Z,124.50
2018-03-07T03:43:48.954Z,134.40
2018-03-07T03:44:48.946Z,121.50
2018-03-07T03:45:48.936Z,111.20
2018-03-07T03:46:48.929Z,126.10
2018-03-07T03:47:48.921Z,143.90
2018-03-07T03:48:48.914Z,113.80
2018-03-07T03:49:48.902Z,111.50
2018-03-07T03:50:48.891Z,132.30
2018-03-07T03:51:48.883Z,161.70
2018-03-07T03:52:48.875Z,115.50
2018-03-07T03:53:48.866Z,167.20
2018-03-07T03:54:48.858Z,113.50
2018-03-07T03:55:48.850Z,174.80
2018-03-07T03:56:48.844Z,113.70
2018-03-07T03:57:48.830Z,128.30
2018-03-07T03:58:48.819Z,105.80
2018-03-07T03:59:48.816Z,109.90
2018-03-07T04:00:48.804Z,147.90
2018-03-07T04:01:48.792Z,114.40
2018-03-07T04:02:48.790Z,110.90
2018-03-07T04:03:48.778Z,110.60
2018-03-07T04:04:48.769Z,115.30
2018-03-07T04:05:48.764Z,120.40
2018-03-07T04:06:48.757Z,112.90
2018-03-07T04:07:48.743Z,125.60
2018-03-07T04:08:48.734Z,115.70
2018-03-07T04:09:48.726Z,159.30
2018-03-07T04:10:48.721Z,134.60
2018-03-07T04:11:48.704Z,142.20
2018-03-07T04:12:48.699Z,141.60
2018-03-07T04:13:48.689Z,123.00
2018-03-07T04:14:48.682Z,116.10
2018-03-07T04:15:48.674Z,130.10
2018-03-07T04:16:48.665Z,125.50
2018-03-07T04:17:48.659Z,135.80
2018-03-07T04:18:48.648Z,139.70
2018-03-07T04:19:48.635Z,119.00
2018-03-07T04:20:48.629Z,153.00
2018-03-07T04:21:48.618Z,141.00
2018-03-07T04:22:48.612Z,132.50
2018-03-07T04:23:48.602Z,139.30
2018-03-07T04:24:48.597Z,120.00
2018-03-07T04:25:48.586Z,139.90
2018-03-07T04:26:48.576Z,120.70
2018-03-07T04:27:48.567Z,118.00
2018-03-07T04:28:48.567Z,121.10
2018-03-07T04:29:48.550Z,123.30
2018-03-07T04:30:48.541Z,141.10
2018-03-07T04:31:48.532Z,135.30
2018-03-07T04:32:48.526Z,128.10
2018-03-07T04:33:48.520Z,120.00
2018-03-07T04:34:48.503Z,150.10
2018-03-07T04:35:48.498Z,132.30
2018-03-07T04:36:48.488Z,117.30
2018-03-07T04:37:48.481Z,126.20
2018-03-07T04:38:48.473Z,141.70
2018-03-07T04:39:48.462Z,118.10
2018-03-07T04:40:48.458Z,127.60
2018-03-07T04:41:48.442Z,145.50
2018-03-07T04:42:48.439Z,156.90
2018-03-07T04:43:48.430Z,123.90
2018-03-07T04:44:48.419Z,132.00
2018-03-07T04:45:48.412Z,134.50
2018-03-07T04:46:48.404Z,130.00
2018-03-07T04:47:48.391Z,126.20
2018-03-07T04:48:48.387Z,142.10
2018-03-07T04:49:48.374Z,166.20
2018-03-07T04:50:48.367Z,124.80
2018-03-07T04:51:48.358Z,143.20
2018-03-07T04:52:48.348Z,138.20
2018-03-07T04:53:48.339Z,139.70
2018-03-07T04:54:48.328Z,160.90
2018-03-07T04:55:48.320Z,201.50
2018-03-07T04:56:48.312Z,158.60
2018-03-07T04:57:48.306Z,174.10
2018-03-07T04:58:48.293Z,144.30
2018-03-07T04:59:48.284Z,139.40
2018-03-07T05:00:48.275Z,147.90
2018-03-07T05:01:48.267Z,127.00
2018-03-07T05:02:48.282Z,138.00
2018-03-07T05:03:48.249Z,152.10
2018-03-07T05:04:48.239Z,122.10
2018-03-07T05:05:48.230Z,135.30
2018-03-07T05:06:48.222Z,177.30
2018-03-07T05:07:48.210Z,137.20
2018-03-07T05:08:48.205Z,163.90
2018-03-07T05:09:48.197Z,165.60
2018-03-07T05:10:48.187Z,173.80
2018-03-07T05:11:48.177Z,128.20
2018-03-07T05:12:48.169Z,184.90
2018-03-07T05:13:48.162Z,143.10
2018-03-07T05:14:48.151Z,139.60
2018-03-07T05:15:48.142Z,142.00
2018-03-07T05:16:48.135Z,147.30
2018-03-07T05:17:48.124Z,125.10
2018-03-07T05:18:48.144Z,155.80
2018-03-07T05:19:48.106Z,138.50
2018-03-07T05:20:48.094Z,123.50
2018-03-07T05:21:48.090Z,159.00
2018-03-07T05:22:48.078Z,119.40
2018-03-07T05:23:48.075Z,123.50
2018-03-07T05:24:48.066Z,137.70
2018-03-07T05:25:48.053Z,139.30
2018-03-07T05:26:48.045Z,154.20
2018-03-07T05:27:48.035Z,155.90
2018-03-07T05:28:48.028Z,135.90
2018-03-07T05:29:48.021Z,122.80
2018-03-07T05:30:48.009Z,129.70
2018-03-07T05:31:48.000Z,145.90
2018-03-07T05:32:47.991Z,116.60
2018-03-07T05:33:47.984Z,148.50
2018-03-07T05:34:47.976Z,167.50
2018-03-07T05:35:47.965Z,129.10
2018-03-07T05:36:47.956Z,134.20
2018-03-07T05:37:47.948Z,121.90
2018-03-07T05:38:47.939Z,123.70
2018-03-07T05:39:47.928Z,118.90
2018-03-07T05:40:47.918Z,141.40
2018-03-07T05:41:47.914Z,147.60
2018-03-07T05:42:47.900Z,128.60
2018-03-07T05:43:47.893Z,141.50
2018-03-07T05:44:47.891Z,121.00
2018-03-07T05:45:47.875Z,112.70
2018-03-07T05:46:47.870Z,136.70
2018-03-07T05:47:47.857Z,149.30
2018-03-07T05:48:47.848Z,161.60
2018-03-07T05:49:47.840Z,127.10
2018-03-07T05:50:47.832Z,121.50
2018-03-07T05:51:47.822Z,127.00
2018-03-07T05:52:47.811Z,118.80
2018-03-07T05:53:47.801Z,137.20
2018-03-07T05:54:47.799Z,126.80
2018-03-07T05:55:47.789Z,127.40
2018-03-07T05:56:47.778Z,130.30
2018-03-07T05:57:47.766Z,130.20
2018-03-07T05:58:47.757Z,151.00
2018-03-07T05:59:47.759Z,127.80
2018-03-07T06:00:47.748Z,136.30
2018-03-07T06:01:47.733Z,116.20
2018-03-07T06:02:47.724Z,127.60
2018-03-07T06:03:47.714Z,117.00
2018-03-07T06:04:47.706Z,126.80
2018-03-07T06:05:47.723Z,120.60
2018-03-07T06:06:47.686Z,125.60
2018-03-07T06:07:47.680Z,125.40
2018-03-07T06:08:47.684Z,158.90
2018-03-07T06:09:47.666Z,181.10
2018-03-07T06:10:47.659Z,162.80
2018-03-07T06:11:47.645Z,171.40
2018-03-07T06:12:47.635Z,157.50
2018-03-07T06:13:47.648Z,159.20
2018-03-07T06:14:47.618Z,130.00
2018-03-07T06:15:47.607Z,146.00
2018-03-07T06:16:47.597Z,141.70
2018-03-07T06:17:47.591Z,130.30
2018-03-07T06:18:47.581Z,135.90
2018-03-07T06:19:47.568Z,124.30
2018-03-07T06:20:47.563Z,127.50
2018-03-07T06:21:47.554Z,131.00
2018-03-07T06:22:47.546Z,128.80
2018-03-07T06:23:47.539Z,110.30
2018-03-07T06:24:47.527Z,118.30
2018-03-07T06:25:47.520Z,113.90
2018-03-07T06:26:47.510Z,114.70
2018-03-07T06:27:47.506Z,131.90
2018-03-07T06:28:47.491Z,120.30
2018-03-07T06:29:47.485Z,117.00
2018-03-07T06:30:47.484Z,132.10
2018-03-07T06:31:47.466Z,126.10
2018-03-07T06:32:47.464Z,129.30
2018-03-07T06:33:47.451Z,124.70
2018-03-07T06:34:47.441Z,138.20
2018-03-07T06:35:47.434Z,147.70
2018-03-07T06:36:47.429Z,130.20
2018-03-07T06:37:47.418Z,119.20
2018-03-07T06:38:47.406Z,129.60
2018-03-07T06:39:47.398Z,129.40
2018-03-07T06:40:47.390Z,174.80
2018-03-07T06:41:47.380Z,141.20
2018-03-07T06:42:47.374Z,136.50
2018-03-07T06:43:47.361Z,158.00
2018-03-07T06:44:47.355Z,148.30
2018-03-07T06:45:47.346Z,141.20
2018-03-07T06:46:47.336Z,187.20
2018-03-07T06:47:47.330Z,154.40
2018-03-07T06:48:47.326Z,159.60
2018-03-07T06:49:47.313Z,164.70
2018-03-07T06:50:47.301Z,209.40
2018-03-07T06:51:47.294Z,165.80
2018-03-07T06:52:47.297Z,155.90
2018-03-07T06:53:47.277Z,160.20
2018-03-07T06:54:47.270Z,166.40
2018-03-07T06:55:47.259Z,160.30
2018-03-07T06:56:47.254Z,172.30
2018-03-07T06:57:47.243Z,143.00
2018-03-07T06:58:47.235Z,168.20
2018-03-07T06:59:47.221Z,133.70
2018-03-07T07:00:47.223Z,124.60
2018-03-07T07:01:47.209Z,130.70
2018-03-07T07:02:47.200Z,150.90
2018-03-07T07:03:47.195Z,127.90
2018-03-07T07:04:47.183Z,121.00
2018-03-07T07:05:47.180Z,142.20
2018-03-07T07:06:47.166Z,146.40
2018-03-07T07:07:47.160Z,160.70
2018-03-07T07:08:47.151Z,127.40
2018-03-07T07:09:47.143Z,141.60
2018-03-07T07:10:47.142Z,123.10
2018-03-07T07:11:47.126Z,125.70
2018-03-07T07:12:47.116Z,159.10
2018-03-07T07:13:47.108Z,127.80
2018-03-07T07:14:47.102Z,129.50
2018-03-07T07:15:47.093Z,167.60
2018-03-07T07:16:47.104Z,183.20
2018-03-07T07:17:47.084Z,154.70
2018-03-07T07:18:47.069Z,149.30
2018-03-07T07:19:47.061Z,153.90
2018-03-07T07:20:47.071Z,135.70
2018-03-07T07:21:47.050Z,143.90
2018-03-07T07:22:47.037Z,124.30
2018-03-07T07:23:47.028Z,125.40
2018-03-07T07:24:47.019Z,120.60
2018-03-07T07:25:47.011Z,116.40
2018-03-07T07:26:47.005Z,120.00
2018-03-07T07:27:46.995Z,127.70
2018-03-07T07:28:46.991Z,126.20
2018-03-07T07:29:46.987Z,120.00
2018-03-07T07:30:46.971Z,126.60
2018-03-07T07:31:46.962Z,151.60
2018-03-07T07:32:46.955Z,142.40
2018-03-07T07:33:46.947Z,127.90
2018-03-07T07:34:46.939Z,130.10
2018-03-07T07:35:46.929Z,132.00
2018-03-07T07:36:46.929Z,134.30
2018-03-07T07:37:46.914Z,120.80
2018-03-07T07:38:46.921Z,132.40
2018-03-07T07:39:46.898Z,173.10
2018-03-07T07:40:46.942Z,159.10
2018-03-07T07:41:46.883Z,155.60
2018-03-07T07:42:46.874Z,181.50
2018-03-07T07:43:46.864Z,182.50
2018-03-07T07:44:46.865Z,157.50
2018-03-07T07:45:46.849Z,139.30
2018-03-07T07:46:46.841Z,144.00
2018-03-07T07:47:46.827Z,130.50
2018-03-07T07:48:46.824Z,134.90
2018-03-07T07:49:46.817Z,139.90
2018-03-07T07:50:46.821Z,147.50
2018-03-07T07:51:46.800Z,143.40
2018-03-07T07:52:46.791Z,131.00
2018-03-07T07:53:46.784Z,198.40
2018-03-07T07:54:46.778Z,184.20
2018-03-07T07:55:46.769Z,169.40
2018-03-07T07:56:46.761Z,210.30
2018-03-07T07:57:46.752Z,187.90
2018-03-07T07:58:46.745Z,223.40
2018-03-07T07:59:46.735Z,171.40
2018-03-07T08:00:46.731Z,154.10
2018-03-07T08:01:46.717Z,163.00
2018-03-07T08:02:46.715Z,171.70
2018-03-07T08:03:46.705Z,156.40
2018-03-07T08:04:46.695Z,167.70
2018-03-07T08:05:46.690Z,195.00
2018-03-07T08:06:46.680Z,176.10
2018-03-07T08:07:46.671Z,169.50
2018-03-07T08:08:46.660Z,178.50
2018-03-07T08:09:46.658Z,174.10
2018-03-07T08:10:46.650Z,186.50
2018-03-07T08:11:46.647Z,161.40
2018-03-07T08:12:46.634Z,195.80
2018-03-07T08:13:46.630Z,154.40
2018-03-07T08:14:46.623Z,164.10
2018-03-07T08:15:46.617Z,170.50
2018-03-07T08:16:46.603Z,153.60
2018-03-07T08:17:46.631Z,166.80
2018-03-07T08:18:46.589Z,160.50
2018-03-07T08:19:46.580Z,132.80
2018-03-07T08:20:46.571Z,143.40
2018-03-07T08:21:46.566Z,149.60
2018-03-07T08:22:46.565Z,153.90
2018-03-07T08:23:46.551Z,171.50
2018-03-07T08:24:46.542Z,155.80
2018-03-07T08:25:46.537Z,150.30
2018-03-07T08:26:46.532Z,150.10
2018-03-07T08:27:46.527Z,162.30
2018-03-07T08:28:46.517Z,166.90
2018-03-07T08:29:46.510Z,140.00
2018-03-07T08:30:46.500Z,143.10
2018-03-07T08:31:46.490Z,130.90
2018-03-07T08:32:46.484Z,129.90
2018-03-07T08:33:46.478Z,127.50
2018-03-07T08:34:46.474Z,126.50
2018-03-07T08:35:46.482Z,122.90
2018-03-07T08:36:46.455Z,122.70
2018-03-07T08:37:46.446Z,142.00
2018-03-07T08:38:46.441Z,129.10
2018-03-07T08:39:46.436Z,138.20
2018-03-07T08:40:46.429Z,129.70
2018-03-07T08:41:46.421Z,121.90
2018-03-07T08:42:46.412Z,121.10
2018-03-07T08:43:46.404Z,125.80
2018-03-07T08:44:46.392Z,121.90
2018-03-07T08:45:46.390Z,124.10
2018-03-07T08:46:46.384Z,121.90
2018-03-07T08:47:46.376Z,111.10
2018-03-07T08:48:46.368Z,122.90
2018-03-07T08:49:46.369Z,122.20
2018-03-07T08:50:46.352Z,116.60
2018-03-07T08:51:46.348Z,120.80
2018-03-07T08:52:46.337Z,113.40
2018-03-07T08:53:46.335Z,116.00
2018-03-07T08:54:46.346Z,124.60
2018-03-07T08:55:46.320Z,114.50
2018-03-07T08:56:46.312Z,112.70
2018-03-07T08:57:46.303Z,117.40
2018-03-07T08:58:46.296Z,118.40
2018-03-07T08:59:46.288Z,121.30
2018-03-07T09:00:46.284Z,115.40
2018-03-07T09:01:46.275Z,128.40
2018-03-07T09:02:46.270Z,134.40
2018-03-07T09:03:46.257Z,125.70
2018-03-07T09:04:46.257Z,129.30
2018-03-07T09:05:46.246Z,139.30
2018-03-07T09:06:46.239Z,123.50
2018-03-07T09:07:46.231Z,126.90
2018-03-07T09:08:46.234Z,116.10
2018-03-07T09:09:46.218Z,122.60
2018-03-07T09:10:46.210Z,134.70
2018-03-07T09:11:46.206Z,133.80
2018-03-07T09:12:46.195Z,133.80
2018-03-07T09:13:46.195Z,137.90
2018-03-07T09:14:46.182Z,128.90
2018-03-07T09:15:46.173Z,127.30
2018-03-07T09:16:46.170Z,129.90
2018-03-07T09:17:46.154Z,126.90
2018-03-07T09:18:46.148Z,137.50
2018-03-07T09:19:46.817Z,139.00
2018-03-07T09:20:46.137Z,135.60
2018-03-07T09:21:46.136Z,131.70
2018-03-07T09:22:46.126Z,117.20
2018-03-07T09:23:46.134Z,140.70
2018-03-07T09:24:46.108Z,123.20
2018-03-07T09:25:46.100Z,121.60
2018-03-07T09:26:46.094Z,134.20
2018-03-07T09:27:46.086Z,123.60
2018-03-07T09:28:46.081Z,113.30
2018-03-07T09:29:46.072Z,119.60
2018-03-07T09:30:46.068Z,114.90
2018-03-07T09:31:46.057Z,104.50
2018-03-07T09:32:46.053Z,102.00
2018-03-07T09:33:46.045Z,97.70
2018-03-07T09:34:46.037Z,103.70
2018-03-07T09:35:46.028Z,98.20
2018-03-07T09:36:46.021Z,107.00
2018-03-07T09:37:46.015Z,99.40
2018-03-07T09:38:46.008Z,95.10
2018-03-07T09:39:46.001Z,95.80
2018-03-07T09:40:45.993Z,95.40
2018-03-07T09:41:45.985Z,92.20
2018-03-07T09:42:45.983Z,95.10
2018-03-07T09:43:45.972Z,89.70
2018-03-07T09:44:45.965Z,85.20
2018-03-07T09:45:45.958Z,83.40
2018-03-07T09:46:45.951Z,74.60
2018-03-07T09:47:45.942Z,82.30
2018-03-07T09:48:45.937Z,75.10
2018-03-07T09:49:45.929Z,70.90
2018-03-07T09:50:45.924Z,65.30
2018-03-07T09:51:45.914Z,71.30
2018-03-07T09:52:45.907Z,73.70
2018-03-07T09:53:45.899Z,74.10
2018-03-07T09:54:45.894Z,71.80
2018-03-07T09:55:45.889Z,72.10
2018-03-07T09:56:45.878Z,69.90
2018-03-07T09:57:45.872Z,78.00
2018-03-07T09:58:45.861Z,69.10
2018-03-07T09:59:45.857Z,69.00
2018-03-07T10:00:45.852Z,72.90
2018-03-07T10:01:45.848Z,73.80
2018-03-07T10:02:45.837Z,62.30
2018-03-07T10:03:45.829Z,61.70
2018-03-07T10:04:45.822Z,62.60
2018-03-07T10:05:45.818Z,63.30
2018-03-07T10:06:45.805Z,62.90
2018-03-07T10:07:45.801Z,60.30
2018-03-07T10:08:45.795Z,59.80
2018-03-07T10:09:45.792Z,63.60
2018-03-07T10:10:45.783Z,58.40
2018-03-07T10:11:45.773Z,64.70
2018-03-07T10:12:45.765Z,58.30
2018-03-07T10:13:45.758Z,57.90
2018-03-07T10:14:45.751Z,61.00
2018-03-07T10:15:45.743Z,61.80
2018-03-07T10:16:45.737Z,62.50
2018-03-07T10:17:45.731Z,64.00
2018-03-07T10:18:45.731Z,58.50
2018-03-07T10:19:45.715Z,58.70
2018-03-07T10:20:45.710Z,62.70
2018-03-07T10:21:45.700Z,60.90
2018-03-07T10:22:45.697Z,61.50
2018-03-07T10:23:45.686Z,58.80
2018-03-07T10:24:45.682Z,61.00
2018-03-07T10:25:45.671Z,61.10
2018-03-07T10:26:45.669Z,59.80
2018-03-07T10:27:45.657Z,60.10
2018-03-07T10:28:45.653Z,60.40
2018-03-07T10:29:45.643Z,58.90
2018-03-07T10:30:45.635Z,62.00
2018-03-07T10:31:45.629Z,62.60
2018-03-07T10:32:45.621Z,58.10
2018-03-07T10:33:45.613Z,57.60
2018-03-07T10:34:45.608Z,62.50
2018-03-07T10:35:45.596Z,55.10
2018-03-07T10:36:45.591Z,52.40
2018-03-07T10:37:45.585Z,52.90
2018-03-07T10:38:45.579Z,55.70
2018-03-07T10:39:45.570Z,50.50
2018-03-07T10:40:45.566Z,49.60
2018-03-07T10:41:45.557Z,53.00
2018-03-07T10:42:45.551Z,51.20
2018-03-07T10:43:45.543Z,51.80
2018-03-07T10:44:45.540Z,53.20
2018-03-07T10:45:45.531Z,49.70
2018-03-07T10:46:45.522Z,52.50
2018-03-07T10:47:45.517Z,56.10
2018-03-07T10:48:45.508Z,53.00
2018-03-07T10:49:45.502Z,55.70
2018-03-07T10:50:45.493Z,59.40
2018-03-07T10:51:45.489Z,51.80
2018-03-07T10:52:45.479Z,51.60
2018-03-07T10:53:45.476Z,51.40
2018-03-07T10:54:45.471Z,51.10
2018-03-07T10:55:45.463Z,50.00
2018-03-07T10:56:45.453Z,52.40
2018-03-07T10:57:45.446Z,53.00
2018-03-07T10:58:45.441Z,47.40
2018-03-07T10:59:45.436Z,49.90
2018-03-07T11:00:45.425Z,51.50
2018-03-07T11:01:45.420Z,50.80
2018-03-07T11:02:45.411Z,51.00
2018-03-07T11:03:45.405Z,48.90
2018-03-07T11:04:45.400Z,52.20
2018-03-07T11:05:45.392Z,50.50
2018-03-07T11:06:45.385Z,44.10
2018-03-07T11:07:45.378Z,46.70
2018-03-07T11:08:45.370Z,48.80
2018-03-07T11:09:45.378Z,46.80
2018-03-07T11:10:45.355Z,47.40
2018-03-07T11:11:45.349Z,47.40
2018-03-07T11:12:45.344Z,49.50
2018-03-07T11:13:45.336Z,51.00
2018-03-07T11:14:45.330Z,49.20
2018-03-07T11:15:45.324Z,53.80
2018-03-07T11:16:45.315Z,53.60
2018-03-07T11:17:45.310Z,50.70
2018-03-07T11:18:45.308Z,50.40
2018-03-07T11:19:45.301Z,51.60
2018-03-07T11:20:45.289Z,52.40
2018-03-07T11:21:45.282Z,52.50
2018-03-07T11:22:45.276Z,51.50
2018-03-07T11:23:45.270Z,46.60
2018-03-07T11:24:45.260Z,45.80
2018-03-07T11:25:45.254Z,51.10
2018-03-07T11:26:45.248Z,49.70
2018-03-07T11:27:45.239Z,47.20
2018-03-07T11:28:45.232Z,41.20
2018-03-07T11:29:45.228Z,45.90
2018-03-07T11:30:45.221Z,44.10
2018-03-07T11:31:45.214Z,43.70
2018-03-07T11:32:45.206Z,45.20
2018-03-07T11:33:45.200Z,42.60
2018-03-07T11:34:45.194Z,44.70
2018-03-07T11:35:45.193Z,45.40
2018-03-07T11:36:45.180Z,43.80
2018-03-07T11:37:45.174Z,43.80
2018-03-07T11:38:45.166Z,44.50
2018-03-07T11:39:45.180Z,46.60
2018-03-07T11:40:45.153Z,43.80
2018-03-07T11:41:45.144Z,44.70
2018-03-07T11:42:45.140Z,43.80
2018-03-07T11:43:45.128Z,46.10
2018-03-07T11:44:45.131Z,45.10
2018-03-07T11:45:45.122Z,44.80
2018-03-07T11:46:45.113Z,46.40
2018-03-07T11:47:45.109Z,48.10
2018-03-07T11:48:45.100Z,46.00
2018-03-07T11:49:45.092Z,47.40
2018-03-07T11:50:45.088Z,51.30
2018-03-07T11:51:45.077Z,44.90
2018-03-07T11:52:45.075Z,47.00
2018-03-07T11:53:45.068Z,47.90
2018-03-07T11:54:45.065Z,48.00
2018-03-07T11:55:45.057Z,46.00
2018-03-07T11:56:45.048Z,46.00
2018-03-07T11:57:45.044Z,46.30
2018-03-07T11:58:45.037Z,48.10
2018-03-07T11:59:45.025Z,48.50
2018-03-07T12:00:45.019Z,46.90
2018-03-07T12:01:45.016Z,48.70
2018-03-07T12:02:45.012Z,52.50
2018-03-07T12:03:45.005Z,55.10
2018-03-07T12:04:44.994Z,53.30
2018-03-07T12:05:44.985Z,51.60
2018-03-07T12:06:44.981Z,50.70
2018-03-07T12:07:44.974Z,48.80
2018-03-07T12:08:44.970Z,47.50
2018-03-07T12:09:44.959Z,49.70
2018-03-07T12:10:44.955Z,48.70
2018-03-07T12:11:44.946Z,49.50
2018-03-07T12:12:44.939Z,52.60
2018-03-07T12:13:44.932Z,47.80
2018-03-07T12:14:44.931Z,46.70
2018-03-07T12:15:44.920Z,46.60
2018-03-07T12:16:44.915Z,48.40
2018-03-07T12:17:44.908Z,45.40
2018-03-07T12:18:44.903Z,47.20
2018-03-07T12:19:44.893Z,41.60
2018-03-07T12:20:44.889Z,46.40
2018-03-07T12:21:44.882Z,46.10
2018-03-07T12:22:44.890Z,50.20
2018-03-07T12:23:44.871Z,49.30
2018-03-07T12:24:44.860Z,52.50
2018-03-07T12:25:44.855Z,54.60
2018-03-07T12:26:44.850Z,53.30
2018-03-07T12:27:44.842Z,50.10
2018-03-07T12:28:44.835Z,48.00
2018-03-07T12:29:44.846Z,47.60
2018-03-07T12:30:44.825Z,51.80
2018-03-07T12:31:44.815Z,51.60
2018-03-07T12:32:44.808Z,50.90
2018-03-07T12:33:44.803Z,55.30
2018-03-07T12:34:44.797Z,55.20